sensor_id;sensor_type;location;lat;lon;timestamp;P1;durP1;ratioP1;P2;durP2;ratioP2
36221;SDS011;22266;52.340;4.962;2022-10-26T00:00:51;14.50;;;10.00;;
36221;SDS011;22266;52.340;4.962;2022-10-26T00:03:18;9.00;;;8.25;;
36221;SDS011;22266;52.340;4.962;2022-10-26T00:05:44;9.50;;;8.25;;
36221;SDS011;22266;52.340;4.962;2022-10-26T00:08:11;12.00;;;9.50;;
36221;SDS011;22266;52.340;4.962;2022-10-26T00:10:38;8.00;;;7.25;;
36221;SDS011;22266;52.340;4.962;2022-10-26T00:13:05;8.25;;;7.00;;
36221;SDS011;22266;52.340;4.962;2022-10-26T00:15:38;8.50;;;8.50;;
36221;SDS011;22266;52.340;4.962;2022-10-26T00:18:05;12.25;;;10.00;;
36221;SDS011;22266;52.340;4.962;2022-10-26T00:20:31;7.00;;;7.00;;
36221;SDS011;22266;52.340;4.962;2022-10-26T00:22:58;8.00;;;7.25;;
36221;SDS011;22266;52.340;4.962;2022-10-26T00:25:24;5.75;;;5.75;;
36221;SDS011;22266;52.340;4.962;2022-10-26T00:27:51;5.75;;;5.00;;
36221;SDS011;22266;52.340;4.962;2022-10-26T00:30:17;8.00;;;8.00;;
36221;SDS011;22266;52.340;4.962;2022-10-26T00:32:44;9.50;;;9.50;;
36221;SDS011;22266;52.340;4.962;2022-10-26T00:35:10;6.75;;;6.75;;
36221;SDS011;22266;52.340;4.962;2022-10-26T00:37:54;7.00;;;7.00;;
36221;SDS011;22266;52.340;4.962;2022-10-26T00:40:21;8.75;;;8.75;;
36221;SDS011;22266;52.340;4.962;2022-10-26T00:42:52;11.75;;;10.00;;
36221;SDS011;22266;52.340;4.962;2022-10-26T00:45:19;9.00;;;8.00;;
36221;SDS011;22266;52.340;4.962;2022-10-26T00:47:50;7.00;;;5.25;;
36221;SDS011;22266;52.340;4.962;2022-10-26T00:50:32;7.00;;;7.00;;
36221;SDS011;22266;52.340;4.962;2022-10-26T00:53:04;10.50;;;8.00;;
36221;SDS011;22266;52.340;4.962;2022-10-26T00:55:33;9.00;;;7.00;;
36221;SDS011;22266;52.340;4.962;2022-10-26T00:58:04;6.25;;;5.00;;
36221;SDS011;22266;52.340;4.962;2022-10-26T01:00:32;6.25;;;6.25;;
36221;SDS011;22266;52.340;4.962;2022-10-26T01:02:59;5.25;;;5.25;;
36221;SDS011;22266;52.340;4.962;2022-10-26T01:05:30;4.00;;;4.00;;
36221;SDS011;22266;52.340;4.962;2022-10-26T01:07:57;9.25;;;8.00;;
36221;SDS011;22266;52.340;4.962;2022-10-26T01:10:25;7.25;;;6.25;;
36221;SDS011;22266;52.340;4.962;2022-10-26T01:12:54;8.00;;;7.00;;
36221;SDS011;22266;52.340;4.962;2022-10-26T01:15:22;7.25;;;6.75;;
36221;SDS011;22266;52.340;4.962;2022-10-26T01:32:32;7.50;;;6.00;;
36221;SDS011;22266;52.340;4.962;2022-10-26T01:38:06;4.50;;;4.50;;
36221;SDS011;22266;52.340;4.962;2022-10-26T01:40:42;7.25;;;5.75;;
36221;SDS011;22266;52.340;4.962;2022-10-26T01:43:15;6.00;;;6.00;;
36221;SDS011;22266;52.340;4.962;2022-10-26T01:45:44;5.00;;;5.00;;
36221;SDS011;22266;52.340;4.962;2022-10-26T01:48:14;5.50;;;4.50;;
36221;SDS011;22266;52.340;4.962;2022-10-26T01:50:44;5.00;;;3.67;;
36221;SDS011;22266;52.340;4.962;2022-10-26T01:53:15;3.33;;;3.00;;
36221;SDS011;22266;52.340;4.962;2022-10-26T02:04:00;3.00;;;3.00;;
36221;SDS011;22266;52.340;4.962;2022-10-26T02:12:37;4.00;;;2.67;;
36221;SDS011;22266;52.340;4.962;2022-10-26T02:15:20;5.00;;;3.00;;
36221;SDS011;22266;52.340;4.962;2022-10-26T02:17:53;3.00;;;3.00;;
36221;SDS011;22266;52.340;4.962;2022-10-26T02:20:26;5.00;;;4.00;;
36221;SDS011;22266;52.340;4.962;2022-10-26T02:22:56;4.00;;;2.75;;
36221;SDS011;22266;52.340;4.962;2022-10-26T02:25:29;2.75;;;2.75;;
36221;SDS011;22266;52.340;4.962;2022-10-26T02:28:00;2.00;;;2.00;;
36221;SDS011;22266;52.340;4.962;2022-10-26T02:30:31;3.00;;;3.00;;
36221;SDS011;22266;52.340;4.962;2022-10-26T02:32:58;2.00;;;2.00;;
36221;SDS011;22266;52.340;4.962;2022-10-26T02:35:26;3.50;;;3.00;;
36221;SDS011;22266;52.340;4.962;2022-10-26T02:37:56;8.00;;;4.50;;
36221;SDS011;22266;52.340;4.962;2022-10-26T02:40:27;4.50;;;3.75;;
36221;SDS011;22266;52.340;4.962;2022-10-26T02:42:55;2.50;;;2.50;;
36221;SDS011;22266;52.340;4.962;2022-10-26T02:45:30;3.25;;;3.25;;
36221;SDS011;22266;52.340;4.962;2022-10-26T02:48:02;3.00;;;3.00;;
36221;SDS011;22266;52.340;4.962;2022-10-26T02:50:31;2.00;;;2.00;;
36221;SDS011;22266;52.340;4.962;2022-10-26T02:53:24;2.00;;;2.00;;
36221;SDS011;22266;52.340;4.962;2022-10-26T02:55:56;2.00;;;2.00;;
36221;SDS011;22266;52.340;4.962;2022-10-26T02:58:26;2.00;;;2.00;;
36221;SDS011;22266;52.340;4.962;2022-10-26T03:00:55;3.67;;;3.33;;
36221;SDS011;22266;52.340;4.962;2022-10-26T03:03:23;4.00;;;2.00;;
36221;SDS011;22266;52.340;4.962;2022-10-26T03:05:49;4.00;;;4.00;;
36221;SDS011;22266;52.340;4.962;2022-10-26T03:08:16;5.00;;;3.75;;
36221;SDS011;22266;52.340;4.962;2022-10-26T03:10:43;3.00;;;3.00;;
36221;SDS011;22266;52.340;4.962;2022-10-26T03:13:11;3.00;;;3.00;;
36221;SDS011;22266;52.340;4.962;2022-10-26T03:15:38;5.00;;;5.00;;
36221;SDS011;22266;52.340;4.962;2022-10-26T03:18:05;3.67;;;3.67;;
36221;SDS011;22266;52.340;4.962;2022-10-26T03:20:32;3.00;;;3.00;;
36221;SDS011;22266;52.340;4.962;2022-10-26T03:22:59;5.25;;;4.75;;
36221;SDS011;22266;52.340;4.962;2022-10-26T03:25:25;3.00;;;3.00;;
36221;SDS011;22266;52.340;4.962;2022-10-26T03:27:58;3.50;;;2.50;;
36221;SDS011;22266;52.340;4.962;2022-10-26T03:30:26;5.00;;;3.00;;
36221;SDS011;22266;52.340;4.962;2022-10-26T03:32:54;5.75;;;5.00;;
36221;SDS011;22266;52.340;4.962;2022-10-26T03:35:20;4.50;;;4.00;;
36221;SDS011;22266;52.340;4.962;2022-10-26T03:37:47;3.00;;;3.00;;
36221;SDS011;22266;52.340;4.962;2022-10-26T03:40:14;3.75;;;3.00;;
36221;SDS011;22266;52.340;4.962;2022-10-26T03:42:40;4.50;;;4.50;;
36221;SDS011;22266;52.340;4.962;2022-10-26T03:45:07;3.75;;;3.75;;
36221;SDS011;22266;52.340;4.962;2022-10-26T03:47:41;5.00;;;5.00;;
36221;SDS011;22266;52.340;4.962;2022-10-26T03:50:09;9.00;;;5.75;;
36221;SDS011;22266;52.340;4.962;2022-10-26T03:52:36;5.25;;;3.00;;
36221;SDS011;22266;52.340;4.962;2022-10-26T03:55:02;3.25;;;3.25;;
36221;SDS011;22266;52.340;4.962;2022-10-26T03:57:29;4.50;;;4.50;;
36221;SDS011;22266;52.340;4.962;2022-10-26T03:59:56;5.75;;;5.00;;
36221;SDS011;22266;52.340;4.962;2022-10-26T04:02:22;5.75;;;4.50;;
36221;SDS011;22266;52.340;4.962;2022-10-26T04:04:48;5.00;;;4.50;;
36221;SDS011;22266;52.340;4.962;2022-10-26T04:07:15;5.50;;;4.50;;
36221;SDS011;22266;52.340;4.962;2022-10-26T04:09:41;6.75;;;6.25;;
36221;SDS011;22266;52.340;4.962;2022-10-26T04:12:07;4.00;;;4.00;;
36221;SDS011;22266;52.340;4.962;2022-10-26T04:14:34;6.50;;;6.25;;
36221;SDS011;22266;52.340;4.962;2022-10-26T04:17:00;7.00;;;5.00;;
36221;SDS011;22266;52.340;4.962;2022-10-26T04:19:27;2.50;;;2.50;;
36221;SDS011;22266;52.340;4.962;2022-10-26T04:21:53;3.25;;;3.25;;
36221;SDS011;22266;52.340;4.962;2022-10-26T04:24:19;4.33;;;3.00;;
36221;SDS011;22266;52.340;4.962;2022-10-26T04:26:46;6.00;;;4.00;;
36221;SDS011;22266;52.340;4.962;2022-10-26T04:29:12;5.50;;;5.00;;
36221;SDS011;22266;52.340;4.962;2022-10-26T04:31:39;4.50;;;4.00;;
36221;SDS011;22266;52.340;4.962;2022-10-26T04:34:06;2.67;;;2.67;;
36221;SDS011;22266;52.340;4.962;2022-10-26T04:36:32;4.00;;;4.00;;
36221;SDS011;22266;52.340;4.962;2022-10-26T04:39:00;6.00;;;3.00;;
36221;SDS011;22266;52.340;4.962;2022-10-26T04:41:26;5.00;;;2.00;;
36221;SDS011;22266;52.340;4.962;2022-10-26T04:43:53;6.00;;;5.00;;
36221;SDS011;22266;52.340;4.962;2022-10-26T04:46:19;2.00;;;2.00;;
36221;SDS011;22266;52.340;4.962;2022-10-26T04:48:46;2.50;;;2.00;;
36221;SDS011;22266;52.340;4.962;2022-10-26T04:51:13;3.00;;;3.00;;
36221;SDS011;22266;52.340;4.962;2022-10-26T04:53:40;2.50;;;2.50;;
36221;SDS011;22266;52.340;4.962;2022-10-26T04:56:07;2.75;;;2.00;;
36221;SDS011;22266;52.340;4.962;2022-10-26T04:58:34;3.00;;;3.00;;
36221;SDS011;22266;52.340;4.962;2022-10-26T05:01:00;4.25;;;4.25;;
36221;SDS011;22266;52.340;4.962;2022-10-26T05:03:28;2.50;;;2.50;;
36221;SDS011;22266;52.340;4.962;2022-10-26T05:05:57;2.00;;;2.00;;
36221;SDS011;22266;52.340;4.962;2022-10-26T05:08:26;5.00;;;2.25;;
36221;SDS011;22266;52.340;4.962;2022-10-26T05:10:54;2.00;;;2.00;;
36221;SDS011;22266;52.340;4.962;2022-10-26T05:13:20;2.33;;;2.33;;
36221;SDS011;22266;52.340;4.962;2022-10-26T05:15:47;1.50;;;1.50;;
36221;SDS011;22266;52.340;4.962;2022-10-26T05:18:13;2.00;;;2.00;;
36221;SDS011;22266;52.340;4.962;2022-10-26T05:20:39;2.67;;;2.67;;
36221;SDS011;22266;52.340;4.962;2022-10-26T05:23:06;3.00;;;3.00;;
36221;SDS011;22266;52.340;4.962;2022-10-26T05:25:36;3.00;;;3.00;;
36221;SDS011;22266;52.340;4.962;2022-10-26T05:28:04;3.50;;;3.50;;
36221;SDS011;22266;52.340;4.962;2022-10-26T05:30:33;6.33;;;2.33;;
36221;SDS011;22266;52.340;4.962;2022-10-26T05:33:00;4.00;;;4.00;;
36221;SDS011;22266;52.340;4.962;2022-10-26T05:35:30;3.00;;;3.00;;
36221;SDS011;22266;52.340;4.962;2022-10-26T05:37:57;2.00;;;2.00;;
36221;SDS011;22266;52.340;4.962;2022-10-26T05:40:24;7.75;;;5.00;;
36221;SDS011;22266;52.340;4.962;2022-10-26T05:42:50;2.00;;;1.33;;
36221;SDS011;22266;52.340;4.962;2022-10-26T05:45:17;2.75;;;2.00;;
36221;SDS011;22266;52.340;4.962;2022-10-26T05:47:44;2.00;;;2.00;;
36221;SDS011;22266;52.340;4.962;2022-10-26T05:50:12;3.75;;;3.75;;
36221;SDS011;22266;52.340;4.962;2022-10-26T05:52:39;3.33;;;2.67;;
36221;SDS011;22266;52.340;4.962;2022-10-26T05:55:07;4.75;;;4.00;;
36221;SDS011;22266;52.340;4.962;2022-10-26T05:57:35;5.00;;;5.00;;
36221;SDS011;22266;52.340;4.962;2022-10-26T06:00:23;2.50;;;2.50;;
36221;SDS011;22266;52.340;4.962;2022-10-26T06:02:56;4.33;;;4.33;;
36221;SDS011;22266;52.340;4.962;2022-10-26T06:08:21;5.33;;;3.00;;
36221;SDS011;22266;52.340;4.962;2022-10-26T06:10:49;3.00;;;3.00;;
36221;SDS011;22266;52.340;4.962;2022-10-26T06:13:17;5.33;;;3.67;;
36221;SDS011;22266;52.340;4.962;2022-10-26T06:18:42;4.00;;;4.00;;
36221;SDS011;22266;52.340;4.962;2022-10-26T06:24:13;2.00;;;2.00;;
36221;SDS011;22266;52.340;4.962;2022-10-26T06:27:07;5.00;;;5.00;;
36221;SDS011;22266;52.340;4.962;2022-10-26T06:29:59;5.75;;;5.75;;
36221;SDS011;22266;52.340;4.962;2022-10-26T06:32:29;4.00;;;3.00;;
36221;SDS011;22266;52.340;4.962;2022-10-26T06:35:08;9.00;;;8.25;;
36221;SDS011;22266;52.340;4.962;2022-10-26T06:37:37;6.33;;;6.00;;
36221;SDS011;22266;52.340;4.962;2022-10-26T06:40:04;6.00;;;3.67;;
36221;SDS011;22266;52.340;4.962;2022-10-26T06:42:31;3.25;;;2.00;;
36221;SDS011;22266;52.340;4.962;2022-10-26T06:44:58;5.50;;;5.25;;
36221;SDS011;22266;52.340;4.962;2022-10-26T06:49:57;5.75;;;4.75;;
36221;SDS011;22266;52.340;4.962;2022-10-26T06:54:58;5.33;;;3.00;;
36221;SDS011;22266;52.340;4.962;2022-10-26T06:57:31;5.25;;;5.25;;
36221;SDS011;22266;52.340;4.962;2022-10-26T07:00:05;6.25;;;5.00;;
36221;SDS011;22266;52.340;4.962;2022-10-26T07:02:48;4.50;;;4.50;;
36221;SDS011;22266;52.340;4.962;2022-10-26T07:05:15;9.00;;;5.00;;
36221;SDS011;22266;52.340;4.962;2022-10-26T07:07:43;6.00;;;4.50;;
36221;SDS011;22266;52.340;4.962;2022-10-26T07:10:12;5.75;;;5.75;;
36221;SDS011;22266;52.340;4.962;2022-10-26T07:12:39;4.67;;;4.67;;
36221;SDS011;22266;52.340;4.962;2022-10-26T07:15:06;6.00;;;6.00;;
36221;SDS011;22266;52.340;4.962;2022-10-26T07:17:45;4.75;;;4.75;;
36221;SDS011;22266;52.340;4.962;2022-10-26T07:20:17;6.00;;;5.75;;
36221;SDS011;22266;52.340;4.962;2022-10-26T07:22:52;5.00;;;5.00;;
36221;SDS011;22266;52.340;4.962;2022-10-26T07:25:20;3.00;;;2.67;;
36221;SDS011;22266;52.340;4.962;2022-10-26T07:27:48;3.67;;;2.67;;
36221;SDS011;22266;52.340;4.962;2022-10-26T07:30:14;4.00;;;4.00;;
36221;SDS011;22266;52.340;4.962;2022-10-26T07:32:41;5.67;;;5.67;;
36221;SDS011;22266;52.340;4.962;2022-10-26T07:35:07;8.25;;;7.50;;
36221;SDS011;22266;52.340;4.962;2022-10-26T07:37:34;7.00;;;7.00;;
36221;SDS011;22266;52.340;4.962;2022-10-26T07:40:01;3.67;;;3.67;;
36221;SDS011;22266;52.340;4.962;2022-10-26T07:42:32;8.00;;;3.50;;
36221;SDS011;22266;52.340;4.962;2022-10-26T07:44:58;6.00;;;4.00;;
36221;SDS011;22266;52.340;4.962;2022-10-26T07:47:24;7.67;;;6.00;;
36221;SDS011;22266;52.340;4.962;2022-10-26T07:49:51;7.00;;;7.00;;
36221;SDS011;22266;52.340;4.962;2022-10-26T07:52:17;8.33;;;8.33;;
36221;SDS011;22266;52.340;4.962;2022-10-26T07:54:43;7.00;;;6.33;;
36221;SDS011;22266;52.340;4.962;2022-10-26T07:57:10;5.33;;;5.33;;
36221;SDS011;22266;52.340;4.962;2022-10-26T07:59:36;9.67;;;8.00;;
36221;SDS011;22266;52.340;4.962;2022-10-26T08:02:03;5.00;;;5.00;;
36221;SDS011;22266;52.340;4.962;2022-10-26T08:04:29;7.67;;;7.00;;
36221;SDS011;22266;52.340;4.962;2022-10-26T08:06:56;6.00;;;6.00;;
36221;SDS011;22266;52.340;4.962;2022-10-26T08:09:22;5.33;;;5.33;;
36221;SDS011;22266;52.340;4.962;2022-10-26T08:11:49;5.67;;;5.67;;
36221;SDS011;22266;52.340;4.962;2022-10-26T08:14:15;8.33;;;8.00;;
36221;SDS011;22266;52.340;4.962;2022-10-26T08:16:41;8.67;;;4.67;;
36221;SDS011;22266;52.340;4.962;2022-10-26T08:19:08;5.00;;;5.00;;
36221;SDS011;22266;52.340;4.962;2022-10-26T08:21:34;5.00;;;4.67;;
36221;SDS011;22266;52.340;4.962;2022-10-26T08:24:05;8.00;;;7.00;;
36221;SDS011;22266;52.340;4.962;2022-10-26T08:26:31;6.00;;;5.33;;
36221;SDS011;22266;52.340;4.962;2022-10-26T08:28:58;6.67;;;6.67;;
36221;SDS011;22266;52.340;4.962;2022-10-26T08:31:24;3.00;;;3.00;;
36221;SDS011;22266;52.340;4.962;2022-10-26T08:33:50;3.00;;;3.00;;
36221;SDS011;22266;52.340;4.962;2022-10-26T08:36:19;3.00;;;3.00;;
36221;SDS011;22266;52.340;4.962;2022-10-26T08:38:49;6.33;;;6.33;;
36221;SDS011;22266;52.340;4.962;2022-10-26T08:41:15;9.00;;;6.67;;
36221;SDS011;22266;52.340;4.962;2022-10-26T08:43:44;5.00;;;5.00;;
36221;SDS011;22266;52.340;4.962;2022-10-26T08:46:21;5.00;;;3.00;;
36221;SDS011;22266;52.340;4.962;2022-10-26T08:49:03;7.00;;;6.00;;
36221;SDS011;22266;52.340;4.962;2022-10-26T08:51:38;5.33;;;5.00;;
36221;SDS011;22266;52.340;4.962;2022-10-26T08:56:44;2.67;;;2.67;;
36221;SDS011;22266;52.340;4.962;2022-10-26T08:59:29;6.00;;;6.00;;
36221;SDS011;22266;52.340;4.962;2022-10-26T09:02:02;3.25;;;3.25;;
36221;SDS011;22266;52.340;4.962;2022-10-26T09:04:29;4.00;;;4.00;;
36221;SDS011;22266;52.340;4.962;2022-10-26T09:12:26;6.67;;;5.33;;
36221;SDS011;22266;52.340;4.962;2022-10-26T09:18:22;4.33;;;4.00;;
36221;SDS011;22266;52.340;4.962;2022-10-26T09:21:03;5.00;;;5.00;;
36221;SDS011;22266;52.340;4.962;2022-10-26T09:23:42;3.67;;;3.67;;
36221;SDS011;22266;52.340;4.962;2022-10-26T09:26:31;5.67;;;5.67;;
36221;SDS011;22266;52.340;4.962;2022-10-26T09:29:04;6.67;;;5.00;;
36221;SDS011;22266;52.340;4.962;2022-10-26T09:31:38;5.33;;;3.00;;
36221;SDS011;22266;52.340;4.962;2022-10-26T09:34:13;5.67;;;5.00;;
36221;SDS011;22266;52.340;4.962;2022-10-26T09:36:45;8.67;;;8.67;;
36221;SDS011;22266;52.340;4.962;2022-10-26T09:39:19;5.67;;;4.00;;
36221;SDS011;22266;52.340;4.962;2022-10-26T09:42:18;8.00;;;5.67;;
36221;SDS011;22266;52.340;4.962;2022-10-26T09:44:56;7.33;;;6.00;;
36221;SDS011;22266;52.340;4.962;2022-10-26T09:47:38;6.00;;;6.00;;
36221;SDS011;22266;52.340;4.962;2022-10-26T09:52:43;5.50;;;5.50;;
36221;SDS011;22266;52.340;4.962;2022-10-26T09:55:10;6.00;;;5.00;;
36221;SDS011;22266;52.340;4.962;2022-10-26T09:57:41;7.00;;;7.00;;
36221;SDS011;22266;52.340;4.962;2022-10-26T10:00:11;8.33;;;8.00;;
36221;SDS011;22266;52.340;4.962;2022-10-26T10:02:40;7.33;;;6.00;;
36221;SDS011;22266;52.340;4.962;2022-10-26T10:05:27;7.67;;;6.67;;
36221;SDS011;22266;52.340;4.962;2022-10-26T10:08:20;5.33;;;5.33;;
36221;SDS011;22266;52.340;4.962;2022-10-26T10:11:08;6.00;;;4.33;;
36221;SDS011;22266;52.340;4.962;2022-10-26T10:13:38;9.00;;;7.33;;
36221;SDS011;22266;52.340;4.962;2022-10-26T10:16:10;8.00;;;8.00;;
36221;SDS011;22266;52.340;4.962;2022-10-26T10:18:40;6.33;;;5.00;;
36221;SDS011;22266;52.340;4.962;2022-10-26T10:21:07;5.33;;;5.33;;
36221;SDS011;22266;52.340;4.962;2022-10-26T10:23:36;6.75;;;5.00;;
36221;SDS011;22266;52.340;4.962;2022-10-26T10:26:13;7.00;;;5.00;;
36221;SDS011;22266;52.340;4.962;2022-10-26T10:28:40;6.67;;;6.67;;
36221;SDS011;22266;52.340;4.962;2022-10-26T10:31:20;6.50;;;6.50;;
36221;SDS011;22266;52.340;4.962;2022-10-26T10:33:48;8.00;;;8.00;;
36221;SDS011;22266;52.340;4.962;2022-10-26T10:36:15;7.33;;;6.67;;
36221;SDS011;22266;52.340;4.962;2022-10-26T10:38:48;6.00;;;6.00;;
36221;SDS011;22266;52.340;4.962;2022-10-26T10:41:21;5.75;;;5.50;;
36221;SDS011;22266;52.340;4.962;2022-10-26T10:43:55;5.00;;;5.00;;
36221;SDS011;22266;52.340;4.962;2022-10-26T10:46:23;11.00;;;9.25;;
36221;SDS011;22266;52.340;4.962;2022-10-26T10:49:03;8.75;;;7.50;;
36221;SDS011;22266;52.340;4.962;2022-10-26T10:51:38;10.25;;;9.50;;
36221;SDS011;22266;52.340;4.962;2022-10-26T10:54:06;6.75;;;6.75;;
36221;SDS011;22266;52.340;4.962;2022-10-26T10:57:04;6.75;;;5.00;;
36221;SDS011;22266;52.340;4.962;2022-10-26T11:08:02;9.00;;;7.67;;
36221;SDS011;22266;52.340;4.962;2022-10-26T11:10:34;5.00;;;5.00;;
36221;SDS011;22266;52.340;4.962;2022-10-26T11:13:14;6.50;;;5.25;;
36221;SDS011;22266;52.340;4.962;2022-10-26T11:15:46;7.50;;;7.50;;
36221;SDS011;22266;52.340;4.962;2022-10-26T11:18:18;6.75;;;5.00;;
36221;SDS011;22266;52.340;4.962;2022-10-26T11:20:53;5.67;;;5.67;;
36221;SDS011;22266;52.340;4.962;2022-10-26T11:23:37;6.50;;;6.50;;
36221;SDS011;22266;52.340;4.962;2022-10-26T11:26:11;10.00;;;9.33;;
36221;SDS011;22266;52.340;4.962;2022-10-26T11:28:47;5.50;;;5.50;;
36221;SDS011;22266;52.340;4.962;2022-10-26T11:31:22;6.00;;;5.75;;
36221;SDS011;22266;52.340;4.962;2022-10-26T11:34:00;7.50;;;6.25;;
36221;SDS011;22266;52.340;4.962;2022-10-26T11:36:37;8.00;;;8.00;;
36221;SDS011;22266;52.340;4.962;2022-10-26T11:44:23;5.75;;;5.00;;
36221;SDS011;22266;52.340;4.962;2022-10-26T11:47:01;4.75;;;4.75;;
36221;SDS011;22266;52.340;4.962;2022-10-26T11:49:42;7.67;;;6.67;;
36221;SDS011;22266;52.340;4.962;2022-10-26T11:52:17;6.00;;;6.00;;
36221;SDS011;22266;52.340;4.962;2022-10-26T11:54:53;6.00;;;6.00;;
36221;SDS011;22266;52.340;4.962;2022-10-26T11:57:22;5.25;;;5.25;;
36221;SDS011;22266;52.340;4.962;2022-10-26T11:59:52;7.50;;;7.00;;
36221;SDS011;22266;52.340;4.962;2022-10-26T12:02:23;6.75;;;6.75;;
36221;SDS011;22266;52.340;4.962;2022-10-26T12:04:59;6.75;;;5.75;;
36221;SDS011;22266;52.340;4.962;2022-10-26T12:07:32;5.50;;;5.50;;
36221;SDS011;22266;52.340;4.962;2022-10-26T12:10:03;8.00;;;7.00;;
36221;SDS011;22266;52.340;4.962;2022-10-26T12:12:41;11.25;;;7.00;;
36221;SDS011;22266;52.340;4.962;2022-10-26T12:21:17;5.25;;;5.25;;
36221;SDS011;22266;52.340;4.962;2022-10-26T12:34:04;5.50;;;5.50;;
36221;SDS011;22266;52.340;4.962;2022-10-26T12:39:38;3.50;;;3.50;;
36221;SDS011;22266;52.340;4.962;2022-10-26T12:44:36;5.75;;;4.75;;
36221;SDS011;22266;52.340;4.962;2022-10-26T12:56:23;9.50;;;8.25;;
36221;SDS011;22266;52.340;4.962;2022-10-26T13:01:09;8.00;;;7.75;;
36221;SDS011;22266;52.340;4.962;2022-10-26T13:03:58;8.00;;;7.50;;
36221;SDS011;22266;52.340;4.962;2022-10-26T13:09:31;9.50;;;9.50;;
36221;SDS011;22266;52.340;4.962;2022-10-26T13:11:59;9.00;;;8.75;;
36221;SDS011;22266;52.340;4.962;2022-10-26T13:14:30;8.25;;;8.25;;
36221;SDS011;22266;52.340;4.962;2022-10-26T13:17:00;10.00;;;10.00;;
36221;SDS011;22266;52.340;4.962;2022-10-26T13:19:31;10.00;;;9.00;;
36221;SDS011;22266;52.340;4.962;2022-10-26T13:22:11;11.50;;;11.25;;
36221;SDS011;22266;52.340;4.962;2022-10-26T13:24:45;8.75;;;8.75;;
36221;SDS011;22266;52.340;4.962;2022-10-26T13:32:32;10.25;;;7.75;;
36221;SDS011;22266;52.340;4.962;2022-10-26T13:35:01;7.25;;;6.75;;
36221;SDS011;22266;52.340;4.962;2022-10-26T13:37:29;7.25;;;7.25;;
36221;SDS011;22266;52.340;4.962;2022-10-26T13:39:58;11.00;;;11.00;;
36221;SDS011;22266;52.340;4.962;2022-10-26T13:42:26;10.25;;;10.25;;
36221;SDS011;22266;52.340;4.962;2022-10-26T13:45:04;7.25;;;6.50;;
36221;SDS011;22266;52.340;4.962;2022-10-26T13:47:42;14.00;;;10.75;;
36221;SDS011;22266;52.340;4.962;2022-10-26T13:50:15;8.50;;;8.50;;
36221;SDS011;22266;52.340;4.962;2022-10-26T13:52:46;9.75;;;8.50;;
36221;SDS011;22266;52.340;4.962;2022-10-26T13:55:20;7.75;;;7.75;;
36221;SDS011;22266;52.340;4.962;2022-10-26T14:00:58;5.50;;;5.50;;
36221;SDS011;22266;52.340;4.962;2022-10-26T14:03:25;5.00;;;4.50;;
36221;SDS011;22266;52.340;4.962;2022-10-26T14:05:52;5.25;;;5.25;;
36221;SDS011;22266;52.340;4.962;2022-10-26T14:08:18;5.25;;;4.25;;
36221;SDS011;22266;52.340;4.962;2022-10-26T14:10:47;5.25;;;5.25;;
36221;SDS011;22266;52.340;4.962;2022-10-26T14:13:21;8.25;;;6.50;;
36221;SDS011;22266;52.340;4.962;2022-10-26T14:15:51;6.00;;;6.00;;
36221;SDS011;22266;52.340;4.962;2022-10-26T14:18:26;7.00;;;6.00;;
36221;SDS011;22266;52.340;4.962;2022-10-26T14:20:57;3.50;;;3.50;;
36221;SDS011;22266;52.340;4.962;2022-10-26T14:23:27;7.00;;;7.00;;
36221;SDS011;22266;52.340;4.962;2022-10-26T14:25:58;6.50;;;6.50;;
36221;SDS011;22266;52.340;4.962;2022-10-26T14:28:28;7.00;;;6.00;;
36221;SDS011;22266;52.340;4.962;2022-10-26T14:31:10;5.50;;;5.50;;
36221;SDS011;22266;52.340;4.962;2022-10-26T14:33:44;3.25;;;3.25;;
36221;SDS011;22266;52.340;4.962;2022-10-26T14:36:11;5.00;;;5.00;;
36221;SDS011;22266;52.340;4.962;2022-10-26T14:38:42;4.75;;;4.75;;
36221;SDS011;22266;52.340;4.962;2022-10-26T14:41:13;3.00;;;3.00;;
36221;SDS011;22266;52.340;4.962;2022-10-26T14:43:42;4.50;;;4.50;;
36221;SDS011;22266;52.340;4.962;2022-10-26T14:46:16;2.25;;;2.25;;
36221;SDS011;22266;52.340;4.962;2022-10-26T14:48:51;3.00;;;3.00;;
36221;SDS011;22266;52.340;4.962;2022-10-26T14:51:32;1.75;;;1.75;;
36221;SDS011;22266;52.340;4.962;2022-10-26T14:54:00;2.50;;;2.00;;
36221;SDS011;22266;52.340;4.962;2022-10-26T14:59:10;3.00;;;3.00;;
36221;SDS011;22266;52.340;4.962;2022-10-26T15:04:37;3.25;;;2.25;;
36221;SDS011;22266;52.340;4.962;2022-10-26T15:09:41;3.00;;;3.00;;
36221;SDS011;22266;52.340;4.962;2022-10-26T15:12:18;1.75;;;1.75;;
36221;SDS011;22266;52.340;4.962;2022-10-26T15:14:55;2.25;;;2.25;;
36221;SDS011;22266;52.340;4.962;2022-10-26T15:17:36;2.75;;;2.75;;
36221;SDS011;22266;52.340;4.962;2022-10-26T15:20:06;2.00;;;2.00;;
36221;SDS011;22266;52.340;4.962;2022-10-26T15:22:39;2.00;;;2.00;;
36221;SDS011;22266;52.340;4.962;2022-10-26T15:25:13;4.25;;;3.50;;
36221;SDS011;22266;52.340;4.962;2022-10-26T15:27:46;2.00;;;2.00;;
36221;SDS011;22266;52.340;4.962;2022-10-26T15:30:17;2.00;;;2.00;;
36221;SDS011;22266;52.340;4.962;2022-10-26T15:32:47;4.00;;;3.00;;
36221;SDS011;22266;52.340;4.962;2022-10-26T15:35:24;3.00;;;2.50;;
36221;SDS011;22266;52.340;4.962;2022-10-26T15:37:56;1.75;;;1.75;;
36221;SDS011;22266;52.340;4.962;2022-10-26T15:40:24;12.50;;;11.00;;
36221;SDS011;22266;52.340;4.962;2022-10-26T15:42:52;7.00;;;7.00;;
36221;SDS011;22266;52.340;4.962;2022-10-26T15:47:49;2.00;;;2.00;;
36221;SDS011;22266;52.340;4.962;2022-10-26T15:50:18;3.25;;;3.25;;
36221;SDS011;22266;52.340;4.962;2022-10-26T15:52:47;3.00;;;2.75;;
36221;SDS011;22266;52.340;4.962;2022-10-26T15:55:15;2.75;;;2.75;;
36221;SDS011;22266;52.340;4.962;2022-10-26T15:57:42;2.25;;;2.25;;
36221;SDS011;22266;52.340;4.962;2022-10-26T16:00:13;3.00;;;3.00;;
36221;SDS011;22266;52.340;4.962;2022-10-26T16:02:41;4.25;;;3.00;;
36221;SDS011;22266;52.340;4.962;2022-10-26T16:05:10;5.00;;;3.75;;
36221;SDS011;22266;52.340;4.962;2022-10-26T16:07:38;3.75;;;2.50;;
36221;SDS011;22266;52.340;4.962;2022-10-26T16:10:07;6.25;;;5.00;;
36221;SDS011;22266;52.340;4.962;2022-10-26T16:12:38;5.50;;;5.00;;
36221;SDS011;22266;52.340;4.962;2022-10-26T16:15:04;2.00;;;2.00;;
36221;SDS011;22266;52.340;4.962;2022-10-26T16:17:31;2.75;;;2.75;;
36221;SDS011;22266;52.340;4.962;2022-10-26T16:19:58;3.50;;;1.75;;
36221;SDS011;22266;52.340;4.962;2022-10-26T16:22:28;5.25;;;2.25;;
36221;SDS011;22266;52.340;4.962;2022-10-26T16:24:56;2.00;;;1.25;;
36221;SDS011;22266;52.340;4.962;2022-10-26T16:27:23;1.75;;;1.25;;
36221;SDS011;22266;52.340;4.962;2022-10-26T16:29:49;3.75;;;3.75;;
36221;SDS011;22266;52.340;4.962;2022-10-26T16:32:16;2.75;;;2.75;;
36221;SDS011;22266;52.340;4.962;2022-10-26T16:34:42;5.00;;;5.00;;
36221;SDS011;22266;52.340;4.962;2022-10-26T16:37:08;0.50;;;0.50;;
36221;SDS011;22266;52.340;4.962;2022-10-26T16:39:35;2.25;;;2.00;;
36221;SDS011;22266;52.340;4.962;2022-10-26T16:42:01;1.75;;;1.75;;
36221;SDS011;22266;52.340;4.962;2022-10-26T16:44:28;3.25;;;2.00;;
36221;SDS011;22266;52.340;4.962;2022-10-26T16:46:54;2.50;;;2.00;;
36221;SDS011;22266;52.340;4.962;2022-10-26T16:49:20;4.50;;;3.00;;
36221;SDS011;22266;52.340;4.962;2022-10-26T16:51:47;1.50;;;1.50;;
36221;SDS011;22266;52.340;4.962;2022-10-26T16:54:13;4.50;;;3.50;;
36221;SDS011;22266;52.340;4.962;2022-10-26T16:56:40;3.00;;;2.75;;
36221;SDS011;22266;52.340;4.962;2022-10-26T16:59:08;9.25;;;8.00;;
36221;SDS011;22266;52.340;4.962;2022-10-26T17:01:35;6.25;;;6.25;;
36221;SDS011;22266;52.340;4.962;2022-10-26T17:04:01;2.00;;;2.00;;
36221;SDS011;22266;52.340;4.962;2022-10-26T17:06:33;5.00;;;3.00;;
36221;SDS011;22266;52.340;4.962;2022-10-26T17:09:00;3.00;;;3.00;;
36221;SDS011;22266;52.340;4.962;2022-10-26T17:11:26;2.00;;;2.00;;
36221;SDS011;22266;52.340;4.962;2022-10-26T17:13:53;3.00;;;3.00;;